KMMH

Mammoth Yosemite Airport

Mammoth Lakes, California, USA
METAR KMMH 222035Z AUTO 12009KT 10SM CLR 17/M09 A3010 RMK AO2 T01671094
Observed Flight Rules
Oct-22 @ 20:35 UTC (13 minutes ago) Visual Flight Rules
Wind Visibility Clouds
120° at 9 knots 10 miles
  • Clear skies
Temperatures Readings
Current 17°C / 63°F
Dewpoint -9°C / 16°F
Humidity 16%
Altimeter 30.1" Hg
Pressure 1019 hPa
Elevation 2173
METAR KMMH 222035Z AUTO 12009KT 10SM CLR 17/M09 A3010 RMK AO2 T01671094
Observed Flight Rules
Oct-22 @ 20:35 UTC
(13 minutes ago)
VFR
Wind Visibility
120° at 9 knots 10 miles
Clouds
  • Clear skies
Temperature Dewpoint
17°C / 63°F -9°C / 16°F
Humidity Altimeter Pressure
16% 30.1" Hg 1019 hPa